• Join FlightAware (Why Join?)
  • Login
  • US Flag 
10:11PM EDT


 

Airport Tracker/Info


-or-


 

Live Flight TrackerFlight Track Log ✈ GJS3706 ✈ 01-Jul-2013 ✈ KALB - KORD

Flight Track Log - Related Links

Times and Time Zones

All times are in EDT time to prevent confusion due to time zone crossing. See the GJS3706 flight status page for this flight to view local times or setup timezone preferences in your user account.

Time Position Orientation Groundspeed Altitude Reporting Facility
EDT Latitude Longitude Course Direction KTS MPH feet Rate Location/Type
12:10PM 42.7350 -73.8844 296° West 244 281 3,700  Level Boston Center
12:11PM 42.7928 -73.9339 328° Northwest 285 328 6,000 2,400 Climbing Boston Center
12:12PM 43.0119 -74.1068 279° West  Level FlightAware Approximate
12:12PM 42.8608 -73.9950 327° Northwest 291 335 8,500  Level Boston Center
12:13PM 43.0230 -74.2386 276° West  Level FlightAware Approximate
12:14PM 43.0325 -74.3708 276° West  Level FlightAware Approximate
12:14PM 42.8604 -74.1649 279° West  Level Estimated
12:14PM 43.0072 -74.1094 279° West 327 376 12,400  Level Boston Center
12:15PM 43.0347 -74.5033 275° West  Level FlightAware Approximate
12:15PM 43.0742 -74.2194 310° West 347 399 14,500  Level Boston Center
12:16PM 43.0786 -74.3389 273° West 325 374 15,900 1,500 Climbing Boston Center
12:17PM 43.0864 -74.4900 274° West 353 406 17,600 1,440 Climbing Boston Center
12:18PM 43.0922 -74.6208 274° West 379 436 18,800 1,200 Climbing Boston Center
12:19PM 43.1019 -74.7692 275° West 391 450 20,000 1,200 Climbing Boston Center
12:20PM 43.1072 -74.9172 273° West 391 450 21,200 1,080 Climbing Boston Center
12:21PM 43.1142 -75.0683 274° West 391 450 22,200 960 Climbing Boston Center
12:22PM 43.1208 -75.2250 273° West 407 468 23,200 960 Climbing Boston Center
12:23PM 43.1269 -75.3989 273° West 412 474 24,200 960 Climbing Boston Center
12:25PM 43.1386 -75.6461 274° West 405 466 25,800 960 Climbing Cleveland Center
12:26PM 43.1453 -75.8050 273° West 410 472 26,800 1,020 Climbing Cleveland Center
12:27PM 43.1517 -75.9611 273° West 421 484 27,900 1,020 Climbing Cleveland Center
12:28PM 43.1581 -76.1231 273° West 421 484 28,900 960 Climbing Cleveland Center
12:29PM 43.1617 -76.2792 272° West 421 484 29,900 960 Climbing Cleveland Center
12:30PM 43.1614 -76.4389 270° West 421 484 30,900 960 Climbing Cleveland Center
12:31PM 43.1606 -76.5925 270° West 416 479 31,900 900 Climbing Cleveland Center
12:32PM 43.1589 -76.7294 269° West 416 479 32,800 900 Climbing Cleveland Center
12:33PM 43.1597 -76.8831 270° West 411 473 33,800 900 Climbing Cleveland Center
12:34PM 43.1581 -77.0311 269° West 405 466 34,700 840 Climbing Cleveland Center
12:35PM 43.1564 -77.1850 269° West 405 466 35,500 780 Climbing Cleveland Center
12:36PM 43.1567 -77.3331 270° West 405 466 36,300 780 Climbing Cleveland Center
12:37PM 43.1564 -77.4811 270° West 405 466 37,100 660 Climbing Cleveland Center
12:38PM 43.1525 -77.6464 268° West 405 466 37,700 420 Climbing Cleveland Center
12:39PM 43.1539 -77.7942 271° West 405 466 38,000 120 Climbing Cleveland Center
12:40PM 43.1492 -77.9453 268° West 405 466 38,000  Level Cleveland Center
12:41PM 43.1486 -78.1019 270° West 405 466 38,000  Level Cleveland Center
12:43PM 43.1425 -78.4236 269° West 420 483 38,000  Level Cleveland Center
12:44PM 43.1369 -78.5861 267° West 425 489 38,000  Level Cleveland Center
12:46PM 43.1275 -78.9106 268° West 425 489 38,000  Level Cleveland Center
12:47PM 43.1236 -79.0728 268° West 425 489 38,000  Level Cleveland Center
12:48PM 43.1167 -79.2000 266° West 420 483 38,000  Level Toronto Center
12:49PM 43.1000 -79.3667 262° West 430 495 38,000  Level Toronto Center
12:50PM 43.1000 -79.5167 270° West 430 495 38,000  Level Toronto Center
12:51PM 43.0833 -79.6833 262° West 430 495 38,000  Level Toronto Center
12:53PM 43.0833 -80.0167 270° West 430 495 38,000  Level Toronto Center
12:54PM 43.0667 -80.1833 262° West 430 495 38,000  Level Toronto Center
12:55PM 43.0667 -80.3333 270° West 430 495 38,000  Level Toronto Center
12:56PM 43.0667 -80.5000 270° West 430 495 38,000  Level Toronto Center
12:57PM 43.0500 -80.6833 263° West 430 495 38,000  Level Toronto Center
12:58PM 43.0333 -80.8167 260° West 430 495 38,000  Level Toronto Center
12:59PM 43.0333 -81.0000 270° West 430 495 38,000  Level Toronto Center
01:01PM 43.0167 -81.3500 266° West 440 506 38,000  Level Toronto Center
01:02PM 43.0167 -81.5000 270° West 440 506 38,000  Level Toronto Center
01:03PM 43.0167 -81.6667 270° West 440 506 38,000  Level Toronto Center
01:04PM 43.0167 -81.8167 270° West 440 506 38,000  Level Toronto Center
01:05PM 43.0000 -82.0000 263° West 440 506 38,000  Level Toronto Center
01:06PM 43.0000 -82.1667 270° West 440 506 38,000  Level Toronto Center
01:07PM 43.0000 -82.3500 270° West 440 506 38,000  Level Toronto Center
01:08PM 43.0000 -82.5000 270° West 440 506 38,000 -180 Level Toronto Center
01:09PM 42.9833 -82.6667 262° West 440 506 37,700 -360 Descending Toronto Center
01:10PM 42.9969 -82.8314 277° West 440 506 37,300 -480 Descending Cleveland Center
01:12PM 42.9858 -83.1544 267° West 440 506 36,300 -540 Descending Cleveland Center
01:13PM 42.9822 -83.3133 268° West 435 501 35,800 -600 Descending Cleveland Center
01:14PM 42.9756 -83.4975 267° West 440 506 35,200 -840 Descending Cleveland Center
01:16PM 42.9500 -83.8167 264° West 450 518 33,400 -1,140 Descending Toronto Center
01:17PM 42.9333 -83.9833 262° West 440 506 31,900 -1,500 Descending Toronto Center
01:18PM 42.9167 -84.1333 261° West 440 506 30,500 -1,560 Descending Toronto Center
01:19PM 42.9078 -84.3308 267° West 445 512 28,800 -1,500 Descending Cleveland Center
01:20PM 42.8919 -84.5003 263° West 431 496 27,300 -960 Descending Chicago Center
01:22PM 42.8500 -84.7667 258° West 410 472 26,000 -420 Descending Toronto Center
01:23PM 42.8442 -84.9622 268° West 415 478 26,000  Level Chicago Center
01:24PM 42.8261 -85.1244 261° West 431 496 26,000  Level Chicago Center
01:25PM 42.8039 -85.3322 262° West 460 529 26,000 -480 Level Chicago Center
01:26PM 42.7836 -85.5103 261° West 473 544 25,100 -1,080 Descending Chicago Center
01:27PM 42.7533 -85.6844 257° West 471 542 23,800 -1,200 Descending Chicago Center
01:28PM 42.7217 -85.8536 256° West 462 532 22,600 -1,200 Descending Chicago Center
01:29PM 42.6931 -86.0164 257° West 444 511 21,400 -1,200 Descending Chicago Center
01:30PM 42.6650 -86.1675 256° West 417 480 20,200 -1,020 Descending Chicago Center
01:31PM 42.6375 -86.3169 256° West 406 467 19,400 -1,260 Descending Chicago Center
01:32PM 42.6086 -86.4617 255° West 399 459 17,700 -1,800 Descending Chicago Center
01:33PM 42.5750 -86.6378 256° West 402 463 15,700 -1,860 Descending Chicago Center
01:34PM 42.5483 -86.7803 256° West 395 455 13,900 -1,800 Descending Chicago Center
01:35PM 42.5083 -86.9156 248° West 389 448 12,100 -1,620 Descending Chicago Center
01:36PM 42.4725 -87.0494 250° West 383 441 10,600 -780 Descending Chicago Center
01:38PM 42.4000 -87.3000 249° West 374 430 10,000 -240 Descending Chicago TRACON
01:39PM 42.3667 -87.4333 251° West 301 346 10,000  Level Chicago TRACON
01:40PM 42.3333 -87.5167 242° Southwest 266 306 10,000 -360 Level Chicago TRACON
01:42PM 42.2839 -87.5925 229° Southwest 242 278 9,300 -840 Descending Chicago Center
01:43PM 42.2331 -87.6458 218° Southwest 231 266 8,100 -1,140 Descending Chicago Center
01:44PM 42.1861 -87.6953 218° Southwest 217 250 7,000 -540 Descending Chicago Center
01:45PM 42.1283 -87.7550 217° Southwest 219 252 7,000  Level Chicago Center
01:46PM 42.0922 -87.8175 232° Southwest 224 258 7,000  Level Chicago Center
01:47PM 42.0914 -87.9017 269° West 226 260 7,000  Level Chicago Center
01:48PM 42.0911 -87.9853 270° West 226 260 7,000 -120 Level Chicago Center
01:49PM 42.0897 -88.0850 269° West 225 259 6,800 -780 Descending Chicago Center
01:50PM 42.0789 -88.1667 260° West 224 258 5,400 -1,380 Descending Chicago Center
01:51PM 42.0450 -88.2156 227° Southwest 221 254 4,000 -720 Descending Chicago Center
01:52PM 41.9950 -88.2042 170° South 197 227 4,000 -60 Level Chicago Center
01:53PM 41.9825 -88.1458 106° East 175 201 3,900 -480 Descending Chicago Center
01:54PM 41.9825 -88.0858 90° East 164 189 3,100 -780 Descending Chicago Center